Time;durP1;ratioP1;P1;durP2;ratioP2;P2;SDS_P1;SDS_P2;PMS_P1;PMS_P2;Temp;Humidity;BMP_temperature;BMP_pressure;BME280_temperature;BME280_humidity;BME280_pressure;Samples;Min_cycle;Max_cycle;Signal;HPM_P1;HPM_P2
2022/10/10 00:00:49;;;;;;;4.03;0.88;;;;;;;8.05;100.00;101479.56;6259239;28;20046;-80
2022/10/10 00:03:51;;;;;;;5.55;1.45;;;;;;;8.04;100.00;101477.88;6259197;28;20049;-79
2022/10/10 00:06:53;;;;;;;1.65;1.05;;;;;;;8.00;100.00;101476.25;6259312;28;20056;-79
2022/10/10 00:09:55;;;;;;;0.60;0.60;;;;;;;7.98;100.00;101470.19;6258397;28;20049;-80
2022/10/10 00:12:57;;;;;;;1.05;0.70;;;;;;;7.86;100.00;101462.72;6259550;28;20065;-79
2022/10/10 00:15:59;;;;;;;1.15;0.80;;;;;;;7.86;100.00;101460.09;6259258;28;20050;-80
2022/10/10 00:19:00;;;;;;;9.85;1.58;;;;;;;7.81;100.00;101457.63;6259072;28;20513;-79
2022/10/10 00:22:02;;;;;;;0.75;0.70;;;;;;;7.77;100.00;101453.41;6258422;28;20049;-80
2022/10/10 00:25:05;;;;;;;1.60;0.90;;;;;;;7.74;100.00;101450.88;6258170;28;20050;-79
2022/10/10 00:28:07;;;;;;;1.77;1.08;;;;;;;7.69;100.00;101451.91;6258235;28;20053;-80
2022/10/10 00:31:09;;;;;;;1.25;0.85;;;;;;;7.65;100.00;101445.91;6257534;28;20516;-79
2022/10/10 00:34:11;;;;;;;6.15;1.20;;;;;;;7.58;100.00;101447.84;6258180;28;20041;-79
2022/10/10 00:37:13;;;;;;;1.17;0.90;;;;;;;7.55;100.00;101447.09;6258881;28;20506;-79
2022/10/10 00:40:16;;;;;;;2.35;1.00;;;;;;;7.53;100.00;101444.50;6259857;28;20053;-77
2022/10/10 00:43:18;;;;;;;5.13;1.35;;;;;;;7.52;100.00;101441.94;6303521;23;20052;-79
2022/10/10 00:46:19;;;;;;;1.02;0.93;;;;;;;7.48;100.00;101443.78;6298587;28;20048;-77
2022/10/10 00:49:25;;;;;;;2.13;1.00;;;;;;;7.46;100.00;101444.75;6298338;28;20122;-77
2022/10/10 00:52:26;;;;;;;0.75;0.70;;;;;;;7.44;100.00;101436.06;6298235;28;20049;-77
2022/10/10 00:55:29;;;;;;;5.63;0.98;;;;;;;7.40;100.00;101437.91;6298647;28;20056;-79
2022/10/10 00:58:32;;;;;;;3.30;0.95;;;;;;;7.41;100.00;101434.41;6303082;28;20049;-79
2022/10/10 01:01:33;;;;;;;4.03;1.25;;;;;;;7.42;100.00;101433.50;6303006;28;20492;-79
2022/10/10 01:04:37;;;;;;;5.55;1.25;;;;;;;7.42;100.00;101436.13;6298151;28;20079;-77
2022/10/10 01:07:39;;;;;;;4.15;0.60;;;;;;;7.42;100.00;101427.44;6298108;28;20055;-77
2022/10/10 01:11:00;;;;;;;1.10;0.90;;;;;;;7.40;100.00;101427.44;6297918;28;20055;-76
2022/10/10 01:14:13;;;;;;;1.77;0.70;;;;;;;7.34;100.00;101425.88;6297830;28;20059;-79
2022/10/10 01:17:19;;;;;;;1.17;1.00;;;;;;;7.32;100.00;101417.25;6298543;28;20052;-79
2022/10/10 01:20:34;;;;;;;2.05;0.82;;;;;;;7.31;100.00;101418.16;6298032;28;20066;-78
2022/10/10 01:23:58;;;;;;;2.88;0.75;;;;;;;7.32;100.00;101417.25;6299368;28;20484;-80
2022/10/10 01:27:10;;;;;;;7.00;1.25;;;;;;;7.35;100.00;101411.03;6297730;28;20067;-77
2022/10/10 01:30:16;;;;;;;4.15;1.00;;;;;;;7.37;100.00;101407.50;6297534;28;20051;-77
2022/10/10 01:33:27;;;;;;;1.30;0.88;;;;;;;7.40;100.00;101416.13;6297698;28;20056;-77
2022/10/10 01:36:38;;;;;;;0.90;0.63;;;;;;;7.33;100.00;101410.25;6297311;28;20045;-77
2022/10/10 01:39:47;;;;;;;1.45;1.17;;;;;;;7.29;100.00;101411.25;6297592;28;20103;-79
2022/10/10 01:42:53;;;;;;;0.85;0.68;;;;;;;7.25;100.00;101402.63;6301674;28;20431;-79
2022/10/10 01:45:56;;;;;;;2.63;0.93;;;;;;;7.20;100.00;101406.28;6297707;28;20056;-77
2022/10/10 01:48:59;;;;;;;1.73;1.40;;;;;;;7.17;100.00;101403.75;6297495;28;20500;-77
2022/10/10 01:52:13;;;;;;;2.00;0.70;;;;;;;7.13;100.00;101400.38;6296838;28;20052;-77
2022/10/10 01:55:33;;;;;;;4.30;1.00;;;;;;;7.09;100.00;101389.16;6297057;28;20045;-77
2022/10/10 01:58:59;;;;;;;1.58;0.98;;;;;;;7.05;100.00;101395.34;6299067;28;20040;-79
2022/10/10 02:02:08;;;;;;;0.95;0.68;;;;;;;7.07;100.00;101379.63;6296609;28;20060;-77
2022/10/10 02:05:20;;;;;;;2.13;1.30;;;;;;;7.00;100.00;101378.09;6294473;28;20055;-77
2022/10/10 02:08:27;;;;;;;1.50;0.75;;;;;;;6.92;100.00;101377.47;6296895;28;20060;-77
2022/10/10 02:11:32;;;;;;;2.63;0.90;;;;;;;6.89;100.00;101377.53;6296990;28;20053;-77
2022/10/10 02:14:37;;;;;;;2.13;1.10;;;;;;;6.89;100.00;101372.31;6296134;28;20487;-79
2022/10/10 02:17:43;;;;;;;4.05;1.10;;;;;;;6.84;100.00;101373.28;6298976;28;20056;-79
2022/10/10 02:20:45;;;;;;;2.67;0.75;;;;;;;6.89;100.00;101370.53;6298867;28;20050;-77
2022/10/10 02:23:50;;;;;;;3.70;1.02;;;;;;;6.83;100.00;101363.75;6296657;28;20511;-79
2022/10/10 02:26:56;;;;;;;1.42;0.68;;;;;;;6.80;100.00;101363.81;6299774;28;20044;-79
2022/10/10 02:29:59;;;;;;;1.60;0.73;;;;;;;6.83;100.00;101361.13;6301004;28;20060;-79
2022/10/10 02:33:05;;;;;;;1.80;1.15;;;;;;;6.82;100.00;101354.19;6304900;28;20044;-78
2022/10/10 02:36:07;;;;;;;1.20;0.95;;;;;;;6.81;100.00;101352.50;6307077;28;20052;-78
2022/10/10 02:39:12;;;;;;;1.35;0.80;;;;;;;6.79;100.00;101354.28;6308511;28;20060;-79
2022/10/10 02:42:16;;;;;;;2.03;1.02;;;;;;;6.75;100.00;101352.66;6303942;28;20053;-78
2022/10/10 02:45:19;;;;;;;0.90;0.60;;;;;;;6.76;100.00;101343.06;6303765;28;20052;-79
2022/10/10 02:48:22;;;;;;;0.50;0.50;;;;;;;6.75;100.00;101343.97;6304069;28;20053;-79
2022/10/10 02:51:24;;;;;;;2.33;0.80;;;;;;;6.73;100.00;101341.41;6302742;28;20048;-79
2022/10/10 02:54:25;;;;;;;2.28;1.10;;;;;;;6.70;100.00;101341.47;6287904;28;20044;-79
2022/10/10 02:57:29;;;;;;;1.35;0.82;;;;;;;6.63;100.00;101336.44;6294709;28;20048;-78
2022/10/10 03:00:30;;;;;;;2.05;0.85;;;;;;;6.60;100.00;101338.25;6284328;28;20040;-78
2022/10/10 03:03:33;;;;;;;1.20;0.90;;;;;;;6.58;100.00;101333.97;6290246;28;20052;-79
2022/10/10 03:06:34;;;;;;;1.73;0.80;;;;;;;6.57;100.00;101340.09;6290231;28;20040;-78
2022/10/10 03:09:36;;;;;;;3.17;1.17;;;;;;;6.54;100.00;101330.59;6290203;28;20503;-78
2022/10/10 03:12:37;;;;;;;3.60;1.15;;;;;;;6.52;100.00;101334.16;6289516;28;20048;-79
2022/10/10 03:15:39;;;;;;;2.63;1.05;;;;;;;6.53;100.00;101330.63;6287255;28;20500;-79
2022/10/10 03:18:41;;;;;;;1.35;0.70;;;;;;;6.52;100.00;101334.16;6289245;28;20047;-79
2022/10/10 03:21:43;;;;;;;3.97;1.23;;;;;;;6.46;100.00;101322.13;6288208;28;20052;-78
2022/10/10 03:24:44;;;;;;;4.20;1.00;;;;;;;6.44;100.00;101331.72;6286651;28;20045;-79
2022/10/10 03:27:46;;;;;;;2.58;0.93;;;;;;;6.46;100.00;101329.94;6278820;28;20056;-79
2022/10/10 03:30:48;;;;;;;3.30;1.08;;;;;;;6.48;100.00;101324.69;6279219;28;20056;-79
2022/10/10 03:33:51;;;;;;;4.15;1.42;;;;;;;6.46;100.00;101324.72;6279313;28;20052;-79
2022/10/10 03:36:52;;;;;;;1.08;0.73;;;;;;;6.43;100.00;101308.28;6280583;28;20056;-79
2022/10/10 03:39:54;;;;;;;4.30;1.13;;;;;;;6.40;100.00;101316.19;6278427;28;20059;-79
2022/10/10 03:42:56;;;;;;;1.63;1.13;;;;;;;6.38;100.00;101308.41;6277180;28;20080;-78
2022/10/10 03:45:57;;;;;;;5.53;1.42;;;;;;;6.40;100.00;101306.59;6277928;28;20400;-78
2022/10/10 03:49:00;;;;;;;1.55;0.82;;;;;;;6.40;100.00;101305.75;6275687;28;20048;-78
2022/10/10 03:52:01;;;;;;;4.30;1.40;;;;;;;6.40;100.00;101305.75;6278065;28;20053;-78
2022/10/10 03:55:04;;;;;;;1.70;0.90;;;;;;;6.31;100.00;101299.03;6277981;28;20445;-78
2022/10/10 03:58:05;;;;;;;3.22;1.00;;;;;;;6.29;100.00;101298.22;6278947;28;20049;-78
2022/10/10 04:01:07;;;;;;;1.23;0.88;;;;;;;6.26;100.00;101293.06;6278600;28;20428;-78
2022/10/10 04:04:10;;;;;;;1.85;1.00;;;;;;;6.24;100.00;101292.25;6278597;28;20587;-78
2022/10/10 04:07:11;;;;;;;1.60;1.15;;;;;;;6.20;100.00;101283.66;6278267;28;20056;-79
2022/10/10 04:10:13;;;;;;;5.95;1.25;;;;;;;6.24;100.00;101276.59;6275626;28;20206;-77
2022/10/10 04:13:14;;;;;;;4.55;1.15;;;;;;;6.24;100.00;101272.25;6274614;28;20049;-78
2022/10/10 04:16:15;;;;;;;2.50;1.23;;;;;;;6.24;100.00;101268.78;6276365;28;20056;-76
2022/10/10 04:19:18;;;;;;;1.10;1.00;;;;;;;6.20;100.00;101272.38;6274061;28;20615;-77
2022/10/10 04:22:20;;;;;;;1.55;0.90;;;;;;;6.14;100.00;101265.56;6273467;28;20417;-76
2022/10/10 04:25:21;;;;;;;3.58;1.42;;;;;;;6.13;100.00;101263.81;6273650;28;20492;-77
2022/10/10 04:28:23;;;;;;;3.25;1.10;;;;;;;6.16;100.00;101268.13;6273721;28;20535;-77
2022/10/10 04:31:24;;;;;;;3.53;1.10;;;;;;;6.11;100.00;101263.03;6273627;28;20049;-77
2022/10/10 04:34:28;;;;;;;2.97;1.50;;;;;;;6.07;100.00;101264.00;6273302;28;20045;-78
2022/10/10 04:37:29;;;;;;;2.03;1.00;;;;;;;6.06;100.00;101255.31;6277966;28;20095;-79
2022/10/10 04:40:31;;;;;;;10.20;1.45;;;;;;;6.01;100.00;101254.59;6277983;28;20056;-78
2022/10/10 04:43:33;;;;;;;1.92;1.40;;;;;;;5.99;100.00;101255.50;6278491;28;20044;-79
2022/10/10 04:46:34;;;;;;;5.43;0.65;;;;;;;5.93;100.00;101253.06;6277308;28;20049;-78
2022/10/10 04:49:37;;;;;;;1.25;0.90;;;;;;;5.92;100.00;101248.75;6278501;28;20072;-78
2022/10/10 04:52:38;;;;;;;1.52;0.98;;;;;;;5.93;100.00;101243.50;6277330;28;20048;-79
2022/10/10 04:55:40;;;;;;;2.28;1.27;;;;;;;5.86;100.00;101241.94;6274789;28;20072;-78
2022/10/10 04:58:41;;;;;;;2.00;0.80;;;;;;;5.82;100.00;101241.16;6277513;28;20052;-79
2022/10/10 05:01:42;;;;;;;1.50;0.95;;;;;;;5.85;100.00;101248.00;6277542;28;20060;-79
2022/10/10 05:04:45;;;;;;;2.53;0.95;;;;;;;5.83;100.00;101242.84;6277659;28;20056;-79
2022/10/10 05:07:47;;;;;;;1.90;1.10;;;;;;;5.78;100.00;101239.50;6275014;28;20044;-77
2022/10/10 05:10:48;;;;;;;2.85;1.20;;;;;;;5.75;100.00;101239.56;6277351;28;20051;-78
2022/10/10 05:13:49;;;;;;;1.55;1.00;;;;;;;5.73;100.00;101233.56;6275820;28;20052;-79
2022/10/10 05:16:51;;;;;;;7.93;1.02;;;;;;;5.70;100.00;101235.38;6278603;28;20079;-79
2022/10/10 05:19:54;;;;;;;1.08;0.93;;;;;;;5.69;100.00;101228.47;6278594;28;20068;-79
2022/10/10 05:22:55;;;;;;;3.38;0.75;;;;;;;5.70;100.00;101220.59;6274317;28;20421;-76
2022/10/10 05:25:57;;;;;;;2.33;1.20;;;;;;;5.75;100.00;101221.31;6276288;28;20055;-79
2022/10/10 05:29:00;;;;;;;3.65;1.10;;;;;;;5.74;100.00;101224.81;6278191;28;20048;-79
2022/10/10 05:32:01;;;;;;;3.80;1.50;;;;;;;5.76;100.00;101222.16;6273456;28;20052;-77
2022/10/10 05:35:06;;;;;;;3.30;1.40;;;;;;;5.73;100.00;101220.53;6271926;28;20060;-78
2022/10/10 05:38:07;;;;;;;1.23;0.93;;;;;;;5.75;100.00;101220.47;6279460;28;20198;-78
2022/10/10 05:41:09;;;;;;;2.83;1.20;;;;;;;5.72;100.00;101217.94;6278158;28;20053;-78
2022/10/10 05:44:10;;;;;;;2.70;1.50;;;;;;;5.71;100.00;101219.69;6278084;28;20139;-78
2022/10/10 05:47:12;;;;;;;2.25;1.10;;;;;;;5.74;100.00;101223.97;6272192;28;20044;-77
2022/10/10 05:50:27;;;;;;;4.00;1.50;;;;;;;5.70;100.00;101227.56;6271714;28;20559;-77
2022/10/10 05:53:30;;;;;;;2.35;0.80;;;;;;;5.69;100.00;101226.69;6271963;28;20064;-76
2022/10/10 05:56:31;;;;;;;2.13;1.38;;;;;;;5.67;100.00;101228.47;6271861;28;20049;-77
2022/10/10 05:59:33;;;;;;;2.35;1.20;;;;;;;5.66;100.00;101218.09;6271878;28;20420;-76
2022/10/10 06:02:35;;;;;;;3.80;1.65;;;;;;;5.67;100.00;101219.81;6271683;28;20048;-76
2022/10/10 06:05:38;;;;;;;1.63;1.00;;;;;;;5.65;100.00;101217.25;6271455;28;20045;-77
2022/10/10 06:08:39;;;;;;;2.13;1.15;;;;;;;5.72;100.00;101217.94;6276889;28;20045;-76
2022/10/10 06:11:40;;;;;;;2.58;1.15;;;;;;;5.69;100.00;101223.25;6276208;28;20497;-77
2022/10/10 06:14:42;;;;;;;1.80;0.98;;;;;;;5.72;100.00;101220.53;6276245;28;20065;-77
2022/10/10 06:17:43;;;;;;;4.03;1.15;;;;;;;5.79;100.00;101222.09;6276607;28;20421;-76
2022/10/10 06:20:46;;;;;;;1.95;1.35;;;;;;;5.81;100.00;101215.06;6276775;28;20045;-77
2022/10/10 06:23:48;;;;;;;4.18;1.42;;;;;;;5.82;100.00;101212.44;6277597;28;20053;-77
2022/10/10 06:26:49;;;;;;;4.40;1.63;;;;;;;5.84;100.00;101202.81;6277631;28;20052;-77
2022/10/10 06:29:51;;;;;;;2.53;1.42;;;;;;;5.83;100.00;101203.72;6277661;28;20528;-77
2022/10/10 06:32:52;;;;;;;2.05;1.48;;;;;;;5.86;100.00;101205.41;6277603;28;20049;-77
2022/10/10 06:35:55;;;;;;;8.27;1.92;;;;;;;5.92;100.00;101214.84;6277448;28;20060;-78
2022/10/10 06:38:56;;;;;;;2.15;1.42;;;;;;;5.96;100.00;101217.34;6280349;28;20045;-77
2022/10/10 06:41:58;;;;;;;2.55;1.90;;;;;;;6.03;100.00;101215.41;6276727;28;20048;-77
2022/10/10 06:44:59;;;;;;;4.68;1.67;;;;;;;6.12;100.00;101219.53;6276904;28;20546;-77
2022/10/10 06:48:01;;;;;;;2.33;1.38;;;;;;;6.14;100.00;101220.34;6277101;28;20056;-77
2022/10/10 06:51:05;;;;;;;3.17;0.77;;;;;;;6.22;100.00;101214.03;6277738;28;20424;-79
2022/10/10 06:54:07;;;;;;;2.63;1.50;;;;;;;6.25;100.00;101213.06;6282516;28;20053;-79
2022/10/10 06:57:08;;;;;;;2.22;1.40;;;;;;;6.31;100.00;101202.44;6283818;28;20049;-79
2022/10/10 07:00:11;;;;;;;6.13;1.60;;;;;;;6.37;100.00;101201.44;6282996;28;20053;-79
2022/10/10 07:03:12;;;;;;;3.17;1.60;;;;;;;6.44;100.00;101201.19;6284127;28;20522;-79
2022/10/10 07:06:16;;;;;;;3.45;1.20;;;;;;;6.50;100.00;101208.88;6284227;28;20426;-80
2022/10/10 07:09:19;;;;;;;3.40;1.50;;;;;;;6.55;100.00;101196.53;6282479;28;20096;-79
2022/10/10 07:12:20;;;;;;;3.63;1.33;;;;;;;6.64;100.00;101190.19;6283503;28;20053;-80
2022/10/10 07:15:22;;;;;;;2.17;1.30;;;;;;;6.73;100.00;101194.28;6287191;28;20116;-79
2022/10/10 07:18:23;;;;;;;2.20;1.58;;;;;;;6.81;100.00;101193.16;6284503;28;20041;-79
2022/10/10 07:21:26;;;;;;;3.25;1.00;;;;;;;6.89;100.00;101187.66;6283816;28;20055;-79
2022/10/10 07:24:28;;;;;;;2.85;1.75;;;;;;;6.99;100.00;101191.69;6283573;28;20607;-79
2022/10/10 07:27:29;;;;;;;1.92;1.30;;;;;;;7.06;100.00;101190.63;6281738;28;20049;-80
2022/10/10 07:30:31;;;;;;;5.30;1.67;;;;;;;7.16;100.00;101193.78;6288364;28;20421;-80
2022/10/10 07:33:34;;;;;;;2.53;1.58;;;;;;;7.26;100.00;101195.19;6300171;28;20047;-80
2022/10/10 07:36:37;;;;;;;1.83;1.50;;;;;;;7.38;100.00;101186.97;6280960;28;20411;-81
2022/10/10 07:39:38;;;;;;;3.60;1.42;;;;;;;7.56;100.00;101192.50;6297918;28;20044;-81
2022/10/10 07:42:40;;;;;;;2.33;1.35;;;;;;;7.66;100.00;101183.41;6309119;28;20098;-80
2022/10/10 07:45:41;;;;;;;3.65;0.85;;;;;;;7.80;100.00;101190.78;6314093;28;20488;-79
2022/10/10 07:48:44;;;;;;;8.35;1.27;;;;;;;7.94;100.00;101198.16;6276296;28;20049;-80
2022/10/10 07:51:47;;;;;;;2.17;1.20;;;;;;;8.12;100.00;101203.59;6275051;28;20052;-78
2022/10/10 07:54:48;;;;;;;3.15;1.40;;;;;;;8.25;100.00;101197.91;6276465;28;20053;-79
2022/10/10 07:57:50;;;;;;;2.15;1.27;;;;;;;8.34;100.00;101198.44;6294059;28;20059;-79
2022/10/10 08:00:51;;;;;;;2.03;1.35;;;;;;;8.41;100.00;101193.88;6303180;28;20048;-80
2022/10/10 08:03:55;;;;;;;2.15;1.10;;;;;;;8.52;100.00;101191.69;6303510;28;20051;-79
2022/10/10 08:06:57;;;;;;;2.45;1.30;;;;;;;8.67;100.00;101198.09;6301517;28;20057;-79
2022/10/10 08:09:59;;;;;;;4.15;1.60;;;;;;;8.75;100.00;101192.56;6303542;28;20045;-79
2022/10/10 08:13:01;;;;;;;1.48;1.10;;;;;;;8.78;100.00;101195.94;6303500;28;20419;-80
2022/10/10 08:16:04;;;;;;;2.15;1.27;;;;;;;8.88;100.00;101199.06;6303720;28;20044;-80
2022/10/10 08:19:06;;;;;;;2.08;1.27;;;;;;;8.98;100.00;101197.78;6304707;28;20129;-80
2022/10/10 08:22:08;;;;;;;2.10;1.48;;;;;;;9.11;100.00;101190.28;6303176;28;20478;-79
2022/10/10 08:25:10;;;;;;;2.58;1.05;;;;;;;9.24;100.00;101193.25;6303871;28;20048;-80
2022/10/10 08:28:11;;;;;;;3.55;1.58;;;;;;;9.35;100.00;101191.03;6303454;28;20511;-80
2022/10/10 08:31:15;;;;;;;3.22;1.42;;;;;;;9.50;100.00;101190.44;6299492;28;20059;-77
2022/10/10 08:34:16;;;;;;;1.20;0.98;;;;;;;9.68;100.00;101188.81;6299766;28;20056;-77
2022/10/10 08:37:19;;;;;;;1.23;0.98;;;;;;;9.83;100.00;101176.78;6301956;28;20056;-78
2022/10/10 08:40:22;;;;;;;1.90;0.90;;;;;;;9.98;100.00;101183.13;6300990;28;20052;-77
2022/10/10 08:43:30;;;;;;;1.33;1.10;;;;;;;10.07;100.00;101175.69;6303219;28;20051;-79
2022/10/10 08:46:40;;;;;;;2.33;1.20;;;;;;;10.18;100.00;101167.38;6302870;28;20411;-78
2022/10/10 08:49:46;;;;;;;4.43;2.45;;;;;;;10.26;100.00;101156.53;6301545;28;20047;-77
2022/10/10 08:52:53;;;;;;;2.78;1.20;;;;;;;10.34;100.00;101157.03;6299767;28;20047;-77
2022/10/10 08:55:55;;;;;;;3.90;1.25;;;;;;;10.37;100.00;101154.28;6300539;28;20054;-77
2022/10/10 08:59:03;;;;;;;1.10;0.98;;;;;;;10.40;100.00;101155.00;6300163;28;20742;-77
2022/10/10 09:02:34;;;;;;;4.63;1.00;;;;;;;10.49;100.00;101152.84;6299152;28;20051;-77
2022/10/10 09:05:49;;;;;;;2.25;0.98;;;;;;;10.57;100.00;101145.47;6298362;28;20048;-77
2022/10/10 09:09:00;;;;;;;1.27;1.08;;;;;;;10.68;100.00;101151.06;6297468;28;20048;-77
2022/10/10 09:12:14;;;;;;;1.48;1.20;;;;;;;10.89;100.00;101144.78;6297788;28;20060;-77
2022/10/10 09:15:20;;;;;;;1.60;1.20;;;;;;;11.05;100.00;101139.63;6298796;28;20056;-77
2022/10/10 09:18:38;;;;;;;2.70;0.95;;;;;;;11.15;100.00;101146.13;6293192;28;20055;-76
2022/10/10 09:21:42;;;;;;;1.52;1.02;;;;;;;11.27;100.00;101149.09;6283535;28;20044;-77
2022/10/10 09:24:50;;;;;;;3.45;1.20;;;;;;;11.41;100.00;101149.25;6296801;28;20060;-77
2022/10/10 09:28:00;;;;;;;1.92;0.77;;;;;;;11.57;100.00;101146.69;6297037;28;20048;-77
2022/10/10 09:31:08;;;;;;;2.53;1.85;;;;;;;11.69;100.00;101144.28;6296417;28;20444;-76
2022/10/10 09:34:15;;;;;;;1.00;0.75;;;;;;;11.89;100.00;101151.16;6296785;28;20052;-77
2022/10/10 09:37:23;;;;;;;2.10;1.08;;;;;;;11.95;100.00;101154.44;6298270;28;20492;-78
2022/10/10 09:40:32;;;;;;;5.03;1.10;;;;;;;12.01;100.00;101159.38;6296415;28;20473;-77
2022/10/10 09:43:35;;;;;;;2.70;1.05;;;;;;;12.15;100.00;101155.06;6298431;28;20061;-77
2022/10/10 09:46:37;;;;;;;4.82;1.02;;;;;;;12.23;100.00;101156.47;6298204;28;20048;-78
2022/10/10 09:49:38;;;;;;;2.13;0.85;;;;;;;12.27;100.00;101150.94;6298681;28;20427;-77
2022/10/10 09:52:41;;;;;;;4.72;0.90;;;;;;;12.35;100.00;101148.75;6296545;28;20053;-77
2022/10/10 09:55:46;;;;;;;1.83;1.10;;;;;;;12.54;100.00;101153.00;6297187;28;20044;-77
2022/10/10 09:58:49;;;;;;;1.80;1.23;;;;;;;12.55;100.00;101159.97;6297557;28;20053;-77
2022/10/10 10:02:02;;;;;;;8.30;0.98;;;;;;;12.62;98.83;101156.91;6296438;28;20205;-77
2022/10/10 10:05:18;;;;;;;2.88;1.40;;;;;;;12.62;100.00;101153.41;6297064;28;20049;-78
2022/10/10 10:08:24;;;;;;;4.20;1.90;;;;;;;12.71;98.83;101150.28;6297451;28;20499;-77
2022/10/10 10:11:32;;;;;;;1.45;1.20;;;;;;;12.81;99.27;101153.22;6297681;28;20047;-77
2022/10/10 10:14:37;;;;;;;2.47;1.58;;;;;;;12.86;97.62;101148.59;6297810;28;20508;-77
2022/10/10 10:17:39;;;;;;;2.13;1.27;;;;;;;12.93;97.70;101152.56;6302157;28;20059;-77
2022/10/10 10:20:41;;;;;;;5.78;1.30;;;;;;;13.09;97.54;101160.47;6299055;28;20314;-77
2022/10/10 10:23:48;;;;;;;3.10;1.30;;;;;;;13.26;97.99;101162.16;6296986;28;20060;-77
2022/10/10 10:26:51;;;;;;;9.25;1.42;;;;;;;13.43;93.28;101159.38;6298322;28;20503;-77
2022/10/10 10:29:55;;;;;;;6.95;1.23;;;;;;;13.44;94.45;101163.72;6298560;28;20048;-77
2022/10/10 10:33:06;;;;;;;2.13;1.00;;;;;;;13.40;96.51;101175.41;6300460;28;20048;-78
2022/10/10 10:36:23;;;;;;;2.50;1.13;;;;;;;13.40;99.21;101167.50;6298384;28;20040;-77
2022/10/10 10:39:38;;;;;;;2.95;1.40;;;;;;;13.49;99.71;101176.66;6302900;28;20049;-77
2022/10/10 10:42:54;;;;;;;4.45;1.83;;;;;;;13.57;98.44;101163.84;6297948;28;20047;-79
2022/10/10 10:46:08;;;;;;;5.97;1.45;;;;;;;13.77;96.21;101162.69;6304339;28;20407;-77
2022/10/10 10:49:15;;;;;;;5.07;1.48;;;;;;;13.84;95.46;101162.19;6298705;28;20041;-79
2022/10/10 10:52:33;;;;;;;2.00;1.20;;;;;;;14.03;93.18;101172.50;6300901;28;20048;-77
2022/10/10 10:55:40;;;;;;;3.13;1.75;;;;;;;14.18;92.41;101163.66;6300967;28;20055;-77
2022/10/10 10:58:59;;;;;;;3.90;1.42;;;;;;;14.35;91.26;101167.03;6302279;28;20051;-76
2022/10/10 11:02:17;;;;;;;4.95;1.40;;;;;;;14.36;91.78;101164.31;6302640;28;20609;-77
2022/10/10 11:05:34;;;;;;;9.93;1.45;;;;;;;14.58;90.37;101160.31;6300907;28;20183;-77
2022/10/10 11:08:47;;;;;;;2.47;1.27;;;;;;;14.64;89.48;101162.59;6300336;28;20522;-77
2022/10/10 11:12:02;;;;;;;1.95;1.60;;;;;;;14.78;89.91;101164.34;6288965;28;20056;-77
2022/10/10 11:15:14;;;;;;;4.05;1.40;;;;;;;14.87;88.52;101156.66;6286371;28;20416;-76
2022/10/10 11:18:19;;;;;;;1.98;1.38;;;;;;;15.03;87.57;101160.94;6300741;28;20420;-76
2022/10/10 11:21:25;;;;;;;5.95;1.58;;;;;;;15.18;86.18;101157.31;6296520;28;20064;-79
2022/10/10 11:24:38;;;;;;;3.03;1.45;;;;;;;15.26;84.09;101154.13;6285067;28;20045;-78
2022/10/10 11:27:45;;;;;;;4.38;1.42;;;;;;;15.34;84.61;101152.69;6287645;28;20049;-78
2022/10/10 11:30:54;;;;;;;3.67;1.58;;;;;;;15.54;81.83;101155.81;6290738;28;20049;-76
2022/10/10 11:34:01;;;;;;;6.70;1.50;;;;;;;15.55;82.58;101150.41;6296609;28;20393;-78
2022/10/10 11:37:06;;;;;;;2.65;1.02;;;;;;;15.68;82.51;101147.81;6300712;28;20080;-77
2022/10/10 11:40:28;;;;;;;5.22;1.67;;;;;;;15.79;78.68;101147.91;6325479;28;20044;-78
2022/10/10 11:43:37;;;;;;;2.47;1.10;;;;;;;15.89;80.22;101151.59;6334588;28;20048;-77
2022/10/10 11:46:44;;;;;;;6.57;1.40;;;;;;;16.14;77.93;101155.22;6307522;28;20412;-77
2022/10/10 11:49:52;;;;;;;2.60;1.67;;;;;;;16.33;76.00;101149.47;6293279;28;20041;-77
2022/10/10 11:53:00;;;;;;;4.93;1.30;;;;;;;16.47;73.83;101144.88;6302315;28;20048;-78
2022/10/10 11:56:13;;;;;;;2.85;1.23;;;;;;;16.61;72.32;101153.63;6289045;28;20048;-76
2022/10/10 11:59:22;;;;;;;1.98;0.98;;;;;;;16.73;71.18;101145.66;6294524;28;20503;-78
2022/10/10 12:02:30;;;;;;;8.90;1.15;;;;;;;16.73;72.23;101139.53;6296492;28;20056;-77
2022/10/10 12:05:37;;;;;;;4.55;1.00;;;;;;;16.89;69.55;101147.19;6282330;28;20053;-77
2022/10/10 12:08:42;;;;;;;4.43;1.25;;;;;;;16.73;71.95;101132.41;6293932;28;20052;-78
2022/10/10 12:11:49;;;;;;;1.33;1.00;;;;;;;16.88;71.88;101134.88;6299753;28;20049;-76
2022/10/10 12:14:54;;;;;;;1.90;1.08;;;;;;;16.97;71.18;101132.41;6301411;28;20041;-78
2022/10/10 12:17:58;;;;;;;5.97;1.75;;;;;;;17.03;70.95;101143.53;6301591;28;20048;-77
2022/10/10 12:21:09;;;;;;;4.05;1.25;;;;;;;16.95;71.59;101144.09;6297716;28;20048;-77
2022/10/10 12:24:12;;;;;;;2.45;1.25;;;;;;;16.96;71.55;101132.53;6299160;28;20050;-78
2022/10/10 12:27:40;;;;;;;3.22;1.00;;;;;;;16.86;72.29;101128.84;6300292;28;20045;-77
2022/10/10 12:31:18;;;;;;;4.53;1.15;;;;;;;16.92;70.91;101123.09;6299803;28;20059;-77
2022/10/10 12:34:43;;;;;;;1.92;1.30;;;;;;;17.06;71.48;101125.56;6300196;28;20055;-77
2022/10/10 12:38:12;;;;;;;1.27;0.85;;;;;;;17.33;71.16;101119.13;6301767;28;20049;-77
2022/10/10 12:41:15;;;;;;;1.02;0.93;;;;;;;17.38;71.04;101123.13;6300738;28;20052;-78
2022/10/10 12:44:22;;;;;;;2.33;1.17;;;;;;;17.52;69.78;101121.25;6330652;22;20408;-83
2022/10/10 12:47:46;;;;;;;16.08;2.00;;;;;;;17.72;66.85;101117.91;6256750;28;20056;-79
2022/10/10 12:50:57;;;;;;;5.63;1.20;;;;;;;17.70;66.61;101109.19;6260515;28;20408;-80
2022/10/10 12:54:02;;;;;;;2.10;0.85;;;;;;;17.55;66.76;101119.19;6273087;28;20135;-81
2022/10/10 12:57:14;;;;;;;2.47;1.30;;;;;;;17.87;64.42;101114.09;6276327;28;20049;-79
2022/10/10 13:00:18;;;;;;;3.20;0.90;;;;;;;17.96;63.95;101112.53;6275383;28;20052;-80
2022/10/10 13:03:26;;;;;;;2.30;0.80;;;;;;;17.80;63.64;101118.16;6277990;28;20053;-78
2022/10/10 13:06:35;;;;;;;4.07;0.98;;;;;;;17.55;65.31;101113.88;6286055;28;20095;-79
2022/10/10 13:09:36;;;;;;;1.55;0.95;;;;;;;17.37;65.49;101118.78;6273715;28;20049;-80
2022/10/10 13:12:38;;;;;;;3.08;1.48;;;;;;;17.64;65.36;101112.34;6273542;28;20059;-79
2022/10/10 13:15:39;;;;;;;4.10;0.88;;;;;;;17.61;65.81;101110.75;6259883;28;20041;-79
2022/10/10 13:18:44;;;;;;;2.47;0.75;;;;;;;17.73;63.64;101116.94;6265637;28;20045;-78
2022/10/10 13:21:49;;;;;;;3.05;1.13;;;;;;;17.71;63.61;101116.19;6276773;28;20049;-78
2022/10/10 13:24:51;;;;;;;1.00;0.90;;;;;;;17.70;64.99;101127.78;6271858;28;20049;-78
2022/10/10 13:27:53;;;;;;;1.42;0.90;;;;;;;17.67;65.09;101118.25;6272762;28;20045;-78
2022/10/10 13:30:55;;;;;;;2.92;1.08;;;;;;;17.55;65.73;101119.19;6271844;28;20507;-78
2022/10/10 13:33:58;;;;;;;3.30;1.40;;;;;;;17.53;65.86;101117.63;6272587;28;20424;-78
2022/10/10 13:37:03;;;;;;;2.53;1.02;;;;;;;17.49;65.40;101119.69;6272999;28;20056;-79
2022/10/10 13:40:05;;;;;;;2.67;0.90;;;;;;;17.52;64.81;101121.25;6272447;28;20518;-78
2022/10/10 13:43:13;;;;;;;3.92;0.80;;;;;;;17.49;65.54;101125.00;6273069;28;20056;-78
2022/10/10 13:46:22;;;;;;;2.80;1.05;;;;;;;17.37;65.53;101128.56;6272104;28;20053;-79
2022/10/10 13:49:25;;;;;;;2.45;1.33;;;;;;;17.38;66.66;101128.44;6272121;28;20087;-77
2022/10/10 13:52:28;;;;;;;6.10;0.80;;;;;;;17.41;65.08;101127.38;6271913;28;20049;-78
2022/10/10 13:55:38;;;;;;;1.13;1.00;;;;;;;17.18;66.77;101131.78;6271993;28;20048;-79
2022/10/10 13:58:44;;;;;;;3.10;0.90;;;;;;;17.13;66.22;101134.78;6272338;28;20045;-77
2022/10/10 14:01:47;;;;;;;8.05;1.13;;;;;;;17.15;67.10;101145.28;6272456;28;20053;-79
2022/10/10 14:04:52;;;;;;;3.75;0.80;;;;;;;17.10;66.87;101142.97;6272205;28;20059;-79
2022/10/10 14:07:55;;;;;;;3.28;1.10;;;;;;;17.02;67.82;101149.81;6273350;28;20048;-79
2022/10/10 14:11:01;;;;;;;2.17;0.90;;;;;;;16.92;69.67;101152.28;6273023;28;20037;-79
2022/10/10 14:14:08;;;;;;;3.60;1.00;;;;;;;16.95;67.11;101154.72;6282381;28;20076;-78
2022/10/10 14:17:10;;;;;;;0.88;0.82;;;;;;;16.89;65.89;101149.84;6271538;28;20486;-78
2022/10/10 14:20:12;;;;;;;2.22;0.93;;;;;;;16.81;66.13;101153.09;6272723;28;20053;-79